Latest Weather Observations for Double Island Point

IDQ60901

Issued at 7:11 pm EST Thursday 19 October 2017 (issued every 10 minutes, with the page automatically refreshed every 10 minutes)

About weather observations | Map of Brisbane area stations | Latest observations for Brisbane area | Other Formats
Station Details ID: 040068 Name: DOUBLE ISLAND POINT LIGHTHOUSE Lat: -25.93 Lon: 153.19 Height: 95.64 m
Data from the previous 72 hours. | See also: Recent months at Double Island Point
Date/Time
EST
Temp
°C
App
Temp
°C
Dew
Point
°C
Rel
Hum
%
Delta-T
°C
Wind Press
QNH
hPa
Press
MSL
hPa
Rain since
9am
mm
Dir  Spd
km/h
Gust
km/h
Spd
kts
Gust
kts
19/07:00pm 21.4 14.7 7.3 40 7.3 E 32 35 17 19 1023.5 1023.2 0.0
19/06:30pm 21.4 13.7 6.9 39 7.4 ESE 37 41 20 22 1023.0 1022.7 0.0
19/06:00pm 21.3 14.2 6.4 38 7.5 ESE 33 39 18 21 1022.8 1022.5 0.0
19/05:30pm 21.5 14.2 5.4 35 8.0 ESE 33 37 18 20 1022.5 1022.2 0.0
19/05:00pm 21.6 14.5 5.5 35 8.0 ESE 32 39 17 21 1022.3 1022.0 0.0
19/04:30pm 21.8 14.8 6.1 36 8.0 ESE 32 37 17 20 1022.2 1021.9 0.0
19/04:00pm 22.4 15.6 7.0 37 7.9 ESE 32 37 17 20 1022.0 1021.7 0.0
19/03:30pm 22.5 15.7 6.7 36 8.1 ESE 32 35 17 19 1022.1 1021.8 0.0
19/03:00pm 22.3 16.3 6.9 37 7.9 SE 28 32 15 17 1022.1 1021.8 0.0
19/02:30pm 22.3 14.9 4.8 32 8.7 ESE 33 37 18 20 1022.3 1022.0 0.0
19/02:00pm 23.7 16.9 5.1 30 9.3 ESE 30 35 16 19 1022.5 1022.2 0.0
19/01:30pm 23.8 16.3 4.7 29 9.5 ESE 33 37 18 20 1022.9 1022.6 0.0
19/01:00pm 24.0 16.3 3.3 26 10.1 ESE 33 37 18 20 1023.2 1022.9 0.0
19/12:30pm 24.4 16.9 3.7 26 10.2 E 32 37 17 20 1023.6 1023.3 0.0
19/12:00pm 24.5 17.0 1.4 22 10.9 ESE 30 33 16 18 1023.8 1023.5 0.0
19/11:30am 24.5 16.7 2.6 24 10.6 E 33 39 18 21 1023.7 1023.4 0.0
19/11:00am 24.6 16.7 4.4 27 10.1 E 35 41 19 22 1023.8 1023.5 0.0
19/10:30am 23.0 14.9 5.4 32 8.9 ESE 37 43 20 23 1023.8 1023.5 0.0
19/10:00am 22.8 15.2 5.7 33 8.6 ESE 35 43 19 23 1024.0 1023.7 0.0
19/09:30am 23.3 15.2 5.2 31 9.1 ESE 37 43 20 23 1024.4 1024.0 0.0
19/09:00am 22.8 14.3 5.3 32 8.7 ESE 39 44 21 24 1024.4 1024.0 1.2
19/08:30am 22.5 14.3 6.7 36 8.1 ESE 39 44 21 24 1024.5 1024.1 1.2
19/08:00am 21.2 12.9 5.9 37 7.7 ESE 39 52 21 28 1024.6 1024.2 1.2
19/07:30am 20.9 12.4 6.8 40 7.2 E 41 56 22 30 1024.4 1024.0 1.2
19/07:00am 20.5 12.1 8.8 47 6.2 E 43 50 23 27 1024.0 1023.7 1.2
19/06:30am 20.1 14.4 9.9 52 5.5 E 30 46 16 25 1024.0 1023.7 1.2
19/06:29am 20.2 14.9 9.7 51 5.6 ESE 28 46 15 25 1023.9 1023.6 1.2
19/06:00am 19.8 10.6 9.4 51 5.5 ESE 48 56 26 30 1023.6 1023.3 1.2
19/05:30am 19.9 13.1 10.6 55 5.1 E 37 44 20 24 1023.3 1023.0 1.2
19/05:00am 19.6 12.3 11.4 59 4.5 E 41 46 22 25 1023.0 1022.7 1.2
19/04:30am 19.5 14.0 12.3 63 4.0 E 33 39 18 21 1022.9 1022.6 1.0
19/04:00am 19.0 8.8 10.0 56 4.8 E 54 65 29 35 1022.5 1022.2 1.0
19/03:45am 20.6 13.2 9.8 50 5.8 ESE 39 57 21 31 1022.4 1022.1 1.0
19/03:30am 20.3 13.2 8.0 45 6.4 SE 35 41 19 22 1022.6 1022.3 1.0
19/03:00am 20.2 12.3 9.5 50 5.7 ESE 41 54 22 29 1022.7 1022.4 1.0
19/02:30am 20.0 10.3 10.4 54 5.2 ESE 52 59 28 32 1022.6 1022.3 1.0
19/02:00am 21.0 12.8 8.3 44 6.6 ESE 41 46 22 25 1022.6 1022.3 1.0
19/01:30am 20.8 12.3 9.4 48 6.1 ESE 44 52 24 28 1022.9 1022.6 1.0
19/01:00am 20.7 11.4 9.3 48 6.1 ESE 48 59 26 32 1022.8 1022.5 1.0
19/12:30am 20.7 12.9 9.6 49 6.0 ESE 41 46 22 25 1023.2 1022.9 1.0
19/12:00am 20.9 12.6 9.5 48 6.1 ESE 43 48 23 26 1023.4 1023.1 1.0
 
Date/Time
EST
Temp
°C
App
Temp
°C
Dew
Point
°C
Rel
Hum
%
Delta-T
°C
Wind Press
QNH
hPa
Press
MSL
hPa
Rain since
9am
mm
Dir  Spd
km/h
Gust
km/h
Spd
kts
Gust
kts
18/11:30pm 20.7 11.7 8.7 46 6.3 ESE 46 52 25 28 1023.6 1023.3 1.0
18/11:00pm 20.3 12.2 10.7 54 5.2 ESE 44 52 24 28 1023.9 1023.6 1.0
18/10:30pm 20.9 12.2 9.8 49 6.0 ESE 46 54 25 29 1023.8 1023.5 1.0
18/10:17pm 20.8 13.5 10.3 51 5.7 ESE 39 57 21 31 1023.9 1023.6 1.0
18/10:00pm 20.2 13.8 11.9 59 4.6 E 37 44 20 24 1024.2 1023.9 1.0
18/09:30pm 19.9 11.3 11.7 59 4.6 E 48 57 26 31 1024.1 1023.8 1.0
18/09:00pm 20.6 12.4 10.4 52 5.5 ESE 44 54 24 29 1024.2 1023.9 1.0
18/08:30pm 20.6 11.7 10.7 53 5.4 ESE 48 56 26 30 1023.9 1023.6 1.0
18/08:10pm 20.3 12.5 11.0 55 5.1 ESE 43 61 23 33 1023.6 1023.3 1.0
18/08:00pm 20.3 11.9 11.0 55 5.1 ESE 46 59 25 32 1023.6 1023.3 1.0
18/07:30pm 20.4 11.7 11.3 56 5.0 ESE 48 54 26 29 1023.2 1022.9 1.0
18/07:00pm 20.4 11.3 11.3 56 5.0 ESE 50 61 27 33 1022.7 1022.4 1.0
18/06:30pm 20.3 10.8 12.5 61 4.4 ESE 54 59 29 32 1022.2 1021.9 1.0
18/06:00pm 19.8 11.5 13.7 68 3.5 E 50 59 27 32 1021.9 1021.6 1.0
18/05:30pm 19.7 13.2 13.9 69 3.3 ESE 41 50 22 27 1021.7 1021.4 1.0
18/05:00pm 20.4 10.9 12.4 60 4.5 ESE 54 67 29 36 1021.3 1021.0 0.0
18/04:55pm 20.5 12.4 12.2 59 4.7 ESE 46 67 25 36 1021.2 1020.9 0.0
18/04:30pm 20.1 12.4 12.1 60 4.5 SE 44 54 24 29 1021.2 1020.9 0.0
18/04:00pm 20.9 12.3 11.8 56 5.1 ESE 48 56 26 30 1021.1 1020.8 0.0
18/03:30pm 21.9 14.8 11.0 50 6.0 ESE 39 52 21 28 1021.0 1020.7 0.0
18/03:00pm 22.2 13.4 9.7 45 6.8 SE 46 54 25 29 1020.8 1020.5 0.0
18/02:30pm 22.6 13.6 10.1 45 6.8 SE 48 59 26 32 1020.9 1020.6 0.0
18/02:00pm 22.8 14.1 9.9 44 7.0 ESE 46 54 25 29 1021.2 1020.9 0.0
18/01:30pm 23.0 13.9 9.8 43 7.2 ESE 48 56 26 30 1021.3 1021.0 0.0
18/01:00pm 22.8 13.6 9.6 43 7.1 ESE 48 56 26 30 1021.5 1021.2 0.0
18/12:30pm 23.0 14.6 11.1 47 6.6 ESE 46 57 25 31 1021.8 1021.5 0.0
18/12:00pm 22.1 13.7 10.9 49 6.2 ESE 46 56 25 30 1021.7 1021.4 0.0
18/11:30am 22.8 13.7 9.9 44 7.0 ESE 48 59 26 32 1022.0 1021.7 0.0
18/11:00am 22.7 14.2 10.8 47 6.6 ESE 46 56 25 30 1022.2 1021.9 0.0
18/10:30am 22.8 13.7 11.2 48 6.5 ESE 50 61 27 33 1022.3 1022.0 0.0
18/10:00am 22.2 13.2 11.6 51 5.9 ESE 50 61 27 33 1022.3 1022.0 0.0
18/09:30am 22.6 15.0 12.5 53 5.8 ESE 44 54 24 29 1022.6 1022.3 0.0
18/09:00am 22.5 13.5 11.6 50 6.1 ESE 50 57 27 31 1022.2 1021.9 2.6
18/08:30am 21.9 12.6 11.9 53 5.6 ESE 52 63 28 34 1021.8 1021.5 2.6
18/08:00am 21.8 10.2 11.2 51 5.9 ESE 63 72 34 39 1021.4 1021.1 2.6
18/07:30am 21.7 11.4 11.7 53 5.6 ESE 57 67 31 36 1021.2 1020.9 2.6
18/07:00am 21.5 12.0 12.4 56 5.1 ESE 54 63 29 34 1020.8 1020.5 2.6
18/06:30am 21.4 11.4 12.5 57 5.1 ESE 57 67 31 36 1020.3 1020.0 2.6
18/06:00am 21.2 11.4 12.6 58 4.9 ESE 56 65 30 35 1020.0 1019.7 2.6
18/05:30am 21.3 11.6 13.7 62 4.4 ESE 57 67 31 36 1019.5 1019.1 2.6
18/05:00am 20.7 12.3 15.7 73 3.0 ESE 54 63 29 34 1019.2 1018.8 2.6
18/04:30am 21.0 13.5 16.0 73 3.0 ESE 50 59 27 32 1018.8 1018.4 2.6
18/04:00am 20.5 11.7 15.7 74 2.9 ESE 56 70 30 38 1018.4 1018.0 2.6
18/03:30am 20.5 11.4 14.8 70 3.4 ESE 56 63 30 34 1018.3 1017.9 2.6
18/03:00am 21.3 12.3 14.0 63 4.2 ESE 54 65 29 35 1018.4 1018.0 2.6
18/02:30am 21.1 13.7 14.3 65 4.0 ESE 46 57 25 31 1018.3 1017.9 2.6
18/02:00am 20.9 12.6 15.0 69 3.5 ESE 52 65 28 35 1018.5 1018.1 2.6
18/01:30am 21.0 12.8 16.2 74 2.9 ESE 54 65 29 35 1018.6 1018.2 2.6
18/01:00am 20.6 14.1 16.6 78 2.4 ESE 46 54 25 29 1019.2 1018.8 2.6
18/12:30am 20.5 13.3 15.9 75 2.8 ESE 48 57 26 31 1019.3 1018.9 2.6
18/12:00am 21.1 12.8 15.0 68 3.6 ESE 52 61 28 33 1019.6 1019.2 1.4
 
Date/Time
EST
Temp
°C
App
Temp
°C
Dew
Point
°C
Rel
Hum
%
Delta-T
°C
Wind Press
QNH
hPa
Press
MSL
hPa
Rain since
9am
mm
Dir  Spd
km/h
Gust
km/h
Spd
kts
Gust
kts
17/11:30pm 20.8 12.1 15.8 73 3.0 ESE 56 65 30 35 1019.9 1019.6 1.4
17/11:00pm 20.9 12.9 15.7 72 3.1 ESE 52 61 28 33 1020.0 1019.7 1.2
17/10:30pm 21.0 12.0 15.1 69 3.5 ESE 56 67 30 36 1020.2 1019.9 1.0
17/10:06pm 20.8 12.8 15.6 72 3.1 ESE 52 70 28 38 1020.2 1019.9 1.0
17/10:00pm 21.1 13.4 16.5 75 2.8 ESE 52 57 28 31 1020.3 1020.0 1.0
17/09:30pm 20.7 11.7 15.5 72 3.1 ESE 57 69 31 37 1020.1 1019.8 1.0
17/09:00pm 20.8 12.2 16.2 75 2.8 ESE 56 67 30 36 1020.0 1019.7 0.8
17/08:47pm 20.6 12.1 15.4 72 3.1 ESE 54 72 29 39 1020.0 1019.7 0.8
17/08:30pm 20.9 11.5 14.5 67 3.8 ESE 57 67 31 36 1019.7 1019.3 0.8
17/08:00pm 21.2 11.2 13.9 63 4.2 ESE 59 70 32 38 1019.5 1019.1 0.8
17/07:30pm 21.1 11.7 14.0 64 4.1 ESE 56 70 30 38 1019.2 1018.8 0.8
17/07:00pm 21.0 11.3 12.9 60 4.6 ESE 56 67 30 36 1019.3 1018.9 0.6
17/06:30pm 21.4 11.7 13.1 59 4.8 ESE 56 63 30 34 1018.8 1018.4 0.6
17/06:00pm 21.7 11.6 12.3 55 5.3 ESE 57 67 31 36 1018.4 1018.0 0.6
17/05:30pm 21.6 11.5 12.2 55 5.3 ESE 57 69 31 37 1018.1 1017.7 0.6
17/05:00pm 21.4 11.4 12.0 55 5.3 ESE 56 65 30 35 1017.6 1017.2 0.6
17/04:30pm 21.6 12.0 12.2 55 5.3 ESE 54 63 29 34 1017.3 1016.9 0.6
17/04:00pm 21.7 12.4 11.7 53 5.6 ESE 52 61 28 33 1017.4 1017.0 0.6
17/03:30pm 21.7 12.3 11.4 52 5.7 ESE 52 61 28 33 1016.9 1016.5 0.6
17/03:00pm 21.7 12.4 11.7 53 5.6 ESE 52 63 28 34 1016.7 1016.3 0.6
17/02:30pm 21.2 11.7 12.3 57 5.0 ESE 54 67 29 36 1016.6 1016.2 0.6
17/02:00pm 20.8 11.7 13.7 64 4.1 ESE 54 61 29 33 1017.1 1016.7 0.6
17/01:30pm 20.7 10.5 12.1 58 4.8 E 57 69 31 37 1017.4 1017.0 0.6
17/01:00pm 21.6 11.7 11.0 51 5.9 ESE 54 65 29 35 1017.4 1017.0 0.6
17/12:30pm 21.8 11.2 10.6 49 6.2 ESE 57 67 31 36 1017.6 1017.2 0.6
17/12:00pm 21.7 11.7 10.8 50 6.0 ESE 54 65 29 35 1017.8 1017.4 0.6
17/11:30am 21.6 11.8 11.3 52 5.7 ESE 54 65 29 35 1018.2 1017.8 0.6
17/11:00am 21.4 11.9 12.3 56 5.1 ESE 54 61 29 33 1018.2 1017.8 0.6
17/10:30am 21.2 12.8 14.6 66 3.9 ESE 52 65 28 35 1018.6 1018.2 0.6
17/10:00am 20.7 12.9 15.3 71 3.2 ESE 50 59 27 32 1018.8 1018.4 0.6
17/09:30am 20.3 12.9 15.3 73 3.0 ESE 48 57 26 31 1019.0 1018.6 0.6
17/09:00am 20.5 12.3 15.1 71 3.2 ESE 52 61 28 33 1018.9 1018.5 17.0
17/08:30am 20.4 10.7 12.9 62 4.3 E 56 67 30 36 1018.8 1018.4 16.6
17/08:00am 20.3 10.3 12.8 62 4.3 ESE 57 72 31 39 1018.2 1017.8 16.6
17/07:42am 20.8 12.0 13.5 63 4.2 ESE 52 72 28 39 1017.9 1017.5 16.6
17/07:30am 20.6 12.2 13.6 64 4.0 ESE 50 61 27 33 1017.7 1017.3 16.6
17/07:00am 20.7 10.3 12.7 60 4.5 ESE 59 65 32 35 1017.1 1016.7 16.6
17/06:30am 20.6 10.6 12.6 60 4.5 ESE 57 69 31 37 1017.1 1016.7 16.6
17/06:00am 20.1 9.6 13.3 65 3.9 ESE 61 72 33 39 1016.2 1015.8 16.6
17/05:49am 20.0 9.1 12.3 61 4.3 ESE 61 80 33 43 1015.8 1015.4 16.6
17/05:30am 19.9 8.0 11.4 58 4.7 ESE 65 76 35 41 1015.9 1015.5 16.6
17/05:00am 20.6 8.9 10.7 53 5.4 ESE 63 76 34 41 1015.8 1015.4 16.6
17/04:30am 20.7 9.0 10.8 53 5.4 ESE 63 72 34 39 1015.7 1015.3 16.6
17/04:00am 20.3 8.7 9.8 51 5.6 SE 61 69 33 37 1015.5 1015.1 16.6
17/03:30am 20.1 7.8 9.9 52 5.5 ESE 65 76 35 41 1015.2 1014.8 16.6
17/03:00am 19.7 7.0 11.2 58 4.7 ESE 69 83 37 45 1015.0 1014.6 16.6
17/02:30am 19.6 8.2 14.2 71 3.1 ESE 67 80 36 43 1015.3 1014.9 16.6
17/02:07am 19.7 9.3 14.9 74 2.8 ESE 63 82 34 44 1015.5 1015.1 16.4
17/02:00am 19.8 10.5 15.7 77 2.4 ESE 59 69 32 37 1015.8 1015.4 16.4
17/01:40am 19.1 9.4 14.8 76 2.5 SE 59 78 32 42 1015.8 1015.4 16.4
17/01:30am 19.3 9.6 14.6 74 2.7 SE 59 72 32 39 1016.1 1015.7 16.2
17/01:00am 19.9 10.0 12.4 62 4.2 SE 56 63 30 34 1016.8 1016.4 15.4
17/12:30am 19.8 9.8 12.1 61 4.3 SE 56 65 30 35 1017.1 1016.7 15.2
17/12:00am 19.9 7.8 10.6 55 5.1 ESE 65 72 35 39 1017.4 1017.0 15.2
 
Date/Time
EST
Temp
°C
App
Temp
°C
Dew
Point
°C
Rel
Hum
%
Delta-T
°C
Wind Press
QNH
hPa
Press
MSL
hPa
Rain since
9am
mm
Dir  Spd
km/h
Gust
km/h
Spd
kts
Gust
kts
16/11:30pm 19.7 7.4 11.5 59 4.5 SE 67 74 36 40 1017.5 1017.1 15.2
16/11:00pm 19.3 7.2 10.6 57 4.7 ESE 65 72 35 39 1017.7 1017.3 15.0
16/10:30pm 19.2 6.5 11.3 60 4.3 SE 69 78 37 42 1017.7 1017.3 15.0
16/10:00pm 19.7 9.4 14.1 70 3.2 ESE 61 72 33 39 1017.9 1017.5 15.0
16/09:30pm 19.5 9.5 15.8 79 2.2 ESE 63 76 34 41 1018.0 1017.6 15.0
16/09:22pm 19.4 10.4 15.5 78 2.3 ESE 57 76 31 41 1017.8 1017.4 14.8
16/09:00pm 19.6 8.6 14.2 71 3.1 ESE 65 74 35 40 1018.0 1017.6 14.2
16/08:30pm 20.0 9.6 14.8 72 3.1 ESE 63 85 34 46 1017.5 1017.1 14.2
16/08:00pm 19.6 9.6 14.8 74 2.8 ESE 61 74 33 40 1017.4 1017.0 14.2
16/07:30pm 19.8 9.5 15.2 75 2.7 ESE 63 78 34 42 1017.1 1016.7 13.6

Latest Capital City Observations: Canberra | Sydney | Melbourne | Brisbane | Adelaide | Perth | Hobart | Darwin

Other Formats:

Comma delimited format used in spreadsheet applications
http://www.bom.gov.au/fwo/IDQ60901/IDQ60901.94584.axf

JavaScript Object Notation format (JSON) in row-major order
http://www.bom.gov.au/fwo/IDQ60901/IDQ60901.94584.json